Time;durP1;ratioP1;P1;durP2;ratioP2;P2;SDS_P1;SDS_P2;PMS_P1;PMS_P2;Temp;Humidity;BMP_temperature;BMP_pressure;BME280_temperature;BME280_humidity;BME280_pressure;Samples;Min_cycle;Max_cycle;Signal;HPM_P1;HPM_P2
2021/10/03 00:01:04;;;;;;;19.90;14.15;;;;;;;11.73;68.51;100726.17;1744566;81;21045;-76
2021/10/03 00:03:39;;;;;;;18.35;13.90;;;;;;;11.70;68.53;100728.37;1751185;81;21521;-76
2021/10/03 00:06:07;;;;;;;21.50;15.28;;;;;;;11.69;68.58;100729.26;1751368;81;21004;-76
2021/10/03 00:08:33;;;;;;;19.55;13.72;;;;;;;11.68;68.63;100722.81;1749285;81;21536;-76
2021/10/03 00:11:07;;;;;;;18.05;14.07;;;;;;;11.66;68.65;100715.51;1740021;81;21583;-76
2021/10/03 00:13:34;;;;;;;19.75;15.25;;;;;;;11.64;68.67;100718.56;1749239;81;21585;-76
2021/10/03 00:16:01;;;;;;;18.45;14.28;;;;;;;11.61;68.66;100717.74;1754638;81;21457;-76
2021/10/03 00:18:30;;;;;;;20.77;14.80;;;;;;;11.58;68.72;100715.20;1746445;81;21442;-76
2021/10/03 00:20:57;;;;;;;22.00;13.93;;;;;;;11.58;68.76;100716.95;1744539;81;21403;-76
2021/10/03 00:23:23;;;;;;;23.35;14.47;;;;;;;11.55;68.78;100714.41;1751587;81;21462;-76
2021/10/03 00:25:50;;;;;;;18.45;13.40;;;;;;;11.53;68.81;100711.84;1751102;81;28578;-76
2021/10/03 00:28:17;;;;;;;19.32;14.55;;;;;;;11.52;68.84;100709.28;1753466;81;26535;-76
2021/10/03 00:30:44;;;;;;;18.52;14.18;;;;;;;11.50;68.89;100709.75;1752567;81;21474;-76
2021/10/03 00:33:11;;;;;;;17.48;14.25;;;;;;;11.49;68.90;100709.34;1745924;81;21354;-76
2021/10/03 00:35:38;;;;;;;18.75;14.03;;;;;;;11.47;68.88;100704.63;1752003;80;21568;-76
2021/10/03 00:38:08;;;;;;;21.27;14.00;;;;;;;11.46;68.97;100701.19;1750169;81;21648;-76
2021/10/03 00:40:38;;;;;;;18.07;13.18;;;;;;;11.47;69.00;100694.27;1746378;81;20980;-76
2021/10/03 00:43:05;;;;;;;17.15;13.72;;;;;;;11.46;69.01;100695.16;1750932;81;20913;-76
2021/10/03 00:45:41;;;;;;;18.65;14.47;;;;;;;11.46;69.02;100695.16;1752411;81;21508;-76
2021/10/03 00:48:08;;;;;;;18.20;14.13;;;;;;;11.47;69.04;100694.27;1749935;81;20996;-76
2021/10/03 00:50:35;;;;;;;;;;;;;;;11.47;69.06;100692.98;1752731;80;21240;-76
2021/10/03 00:53:02;;;;;;;16.27;12.55;;;;;;;11.46;69.27;100693.42;1756492;80;20213;-76
2021/10/03 00:55:29;;;;;;;17.27;12.90;;;;;;;11.48;69.12;100692.09;1739475;81;21394;-76
2021/10/03 00:57:56;;;;;;;15.80;13.30;;;;;;;11.47;69.13;100689.09;1746071;81;21521;-76
2021/10/03 01:00:25;;;;;;;;;;;;;;;11.47;69.14;100689.09;1741699;81;22282;-76
2021/10/03 01:02:52;;;;;;;17.37;12.65;;;;;;;11.47;69.34;100685.20;1745433;81;20114;-76
2021/10/03 01:05:20;;;;;;;14.93;11.93;;;;;;;11.45;69.17;100685.23;1730926;81;21355;-76
2021/10/03 01:07:47;;;;;;;15.25;11.93;;;;;;;11.45;69.13;100677.91;1745201;81;20945;-76
2021/10/03 01:10:18;;;;;;;;;;;;;;;11.44;69.16;100680.94;1754067;81;21430;-76
2021/10/03 01:12:58;;;;;;;16.87;11.73;;;;;;;11.43;69.34;100675.83;1751592;81;20398;-76
2021/10/03 01:15:27;;;;;;;15.65;12.18;;;;;;;11.42;69.23;100673.67;1746065;81;21454;-76
2021/10/03 01:17:53;;;;;;;15.65;11.50;;;;;;;11.42;69.23;100674.97;1751520;81;21481;-76
2021/10/03 01:20:21;;;;;;;15.23;12.43;;;;;;;11.40;69.24;100675.88;1751713;81;20877;-76
2021/10/03 01:22:48;;;;;;;14.78;11.50;;;;;;;11.39;69.24;100671.58;1725531;81;21540;-76
2021/10/03 01:25:14;;;;;;;14.73;11.85;;;;;;;11.39;69.27;100670.29;1751692;81;26913;-76
2021/10/03 01:27:41;;;;;;;14.30;11.55;;;;;;;11.37;69.31;100668.17;1749545;81;20949;-76
2021/10/03 01:30:12;;;;;;;16.77;11.50;;;;;;;11.34;69.34;100670.38;1751716;81;21382;-76
2021/10/03 01:32:39;;;;;;;16.75;11.83;;;;;;;11.33;69.34;100670.40;1751192;81;21374;-76
2021/10/03 01:35:06;;;;;;;14.10;12.07;;;;;;;11.28;69.37;100662.27;1751869;81;20918;-76
2021/10/03 01:37:33;;;;;;;15.38;12.00;;;;;;;11.27;69.35;100670.06;1747590;81;20925;-76
2021/10/03 01:40:05;;;;;;;15.38;11.00;;;;;;;11.24;69.37;100663.66;1751355;81;21501;-76
2021/10/03 01:42:31;;;;;;;15.68;11.15;;;;;;;11.21;69.41;100662.41;1751605;81;20921;-76
2021/10/03 01:44:57;;;;;;;13.67;11.63;;;;;;;11.18;69.42;100665.91;1755081;81;20902;-76
2021/10/03 01:47:25;;;;;;;13.95;11.75;;;;;;;11.15;69.46;100667.25;1751362;81;20878;-76
2021/10/03 01:49:51;;;;;;;17.40;12.17;;;;;;;11.12;69.47;100658.25;1750255;81;21466;-76
2021/10/03 01:52:17;;;;;;;15.35;11.70;;;;;;;11.11;69.51;100664.74;1744576;81;20945;-76
2021/10/03 01:54:45;;;;;;;14.78;11.20;;;;;;;11.08;69.52;100666.09;1751762;81;21380;-76
2021/10/03 01:57:12;;;;;;;11.45;10.30;;;;;;;11.07;69.55;100667.83;1751055;81;20941;-76
2021/10/03 01:59:40;;;;;;;14.18;11.30;;;;;;;11.04;69.54;100664.00;1749331;81;20860;-76
2021/10/03 02:02:07;;;;;;;16.80;11.33;;;;;;;11.04;69.59;100669.61;1751603;80;20906;-76
2021/10/03 02:04:34;;;;;;;13.13;10.95;;;;;;;11.02;69.59;100665.75;1748484;81;22727;-76
2021/10/03 02:07:01;;;;;;;16.15;11.12;;;;;;;11.00;69.62;100661.05;1742280;81;20866;-76
2021/10/03 02:09:28;;;;;;;14.83;11.43;;;;;;;11.00;69.62;100663.63;1746601;81;20912;-76
2021/10/03 02:11:58;;;;;;;16.50;11.95;;;;;;;11.00;69.67;100664.07;1751886;81;20870;-76
2021/10/03 02:14:32;;;;;;;16.65;11.95;;;;;;;10.99;69.69;100662.36;1747147;81;20882;-76
2021/10/03 02:17:00;;;;;;;;;;;;;;;10.99;69.68;100659.78;1748782;81;20921;-76
2021/10/03 02:19:29;;;;;;;20.08;11.33;;;;;;;10.98;69.90;100657.63;1751714;81;20090;-76
2021/10/03 02:22:00;;;;;;;12.07;10.80;;;;;;;10.97;69.71;100660.24;1752903;81;20945;-76
2021/10/03 02:24:27;;;;;;;15.50;11.83;;;;;;;10.96;69.75;100659.39;1751335;81;20895;-76
2021/10/03 02:26:53;;;;;;;11.95;10.43;;;;;;;10.95;69.76;100648.62;1751716;81;20878;-76
2021/10/03 02:29:20;;;;;;;17.50;11.55;;;;;;;10.94;69.76;100646.48;1744808;81;20914;-76
2021/10/03 02:31:47;;;;;;;22.25;10.85;;;;;;;10.95;69.81;100649.48;1747825;81;20941;-76
2021/10/03 02:34:13;;;;;;;16.40;11.48;;;;;;;10.96;69.83;100647.74;1744918;81;20929;-76
2021/10/03 02:36:40;;;;;;;14.90;10.98;;;;;;;10.97;69.84;100644.72;1750667;81;25158;-76
2021/10/03 02:39:06;;;;;;;11.30;9.80;;;;;;;10.96;69.84;100642.57;1751279;81;20914;-76
2021/10/03 02:41:32;;;;;;;15.53;10.33;;;;;;;10.98;69.86;100640.81;1748110;81;21770;-76
2021/10/03 02:44:01;;;;;;;13.78;10.03;;;;;;;10.99;69.86;100646.41;1739630;81;21166;-76
2021/10/03 02:46:28;;;;;;;16.40;9.75;;;;;;;11.00;69.85;100639.05;1741093;81;20945;-76
2021/10/03 02:48:55;;;;;;;13.08;9.65;;;;;;;11.02;69.86;100634.70;1750087;81;20894;-76
2021/10/03 02:51:27;;;;;;;10.65;9.28;;;;;;;11.03;69.85;100636.41;1751012;80;20925;-76
2021/10/03 02:53:54;;;;;;;14.35;9.35;;;;;;;11.04;69.84;100632.09;1670450;84;20977;-76
2021/10/03 02:56:23;;;;;;;12.20;8.70;;;;;;;11.04;69.87;100629.06;1712501;82;20922;-76
2021/10/03 02:58:50;;;;;;;13.65;9.35;;;;;;;11.04;69.87;100626.92;1710547;83;20889;-76
2021/10/03 03:01:17;;;;;;;13.88;9.05;;;;;;;11.05;69.89;100627.33;1710618;83;20889;-76
2021/10/03 03:03:52;;;;;;;11.53;8.70;;;;;;;11.05;69.89;100623.45;1702628;82;20893;-76
2021/10/03 03:06:19;;;;;;;10.23;8.95;;;;;;;11.07;69.89;100616.52;1731170;82;20893;-76
2021/10/03 03:08:46;;;;;;;11.73;9.05;;;;;;;11.09;69.92;100613.02;1710430;82;21793;-76
2021/10/03 03:11:18;;;;;;;11.25;9.03;;;;;;;11.10;69.92;100616.02;1710459;82;20949;-76
2021/10/03 03:13:44;;;;;;;10.87;8.37;;;;;;;11.13;69.89;100617.70;1709333;82;20881;-76
2021/10/03 03:16:10;;;;;;;17.30;9.15;;;;;;;11.14;69.89;100607.31;1710826;83;20953;-76
2021/10/03 03:18:36;;;;;;;12.18;8.58;;;;;;;11.15;69.93;100602.99;1710825;83;20924;-76
2021/10/03 03:21:02;;;;;;;11.47;8.37;;;;;;;11.16;69.93;100594.34;1712421;82;20923;-76
2021/10/03 03:23:28;;;;;;;13.37;8.63;;;;;;;11.17;69.89;100596.91;1716380;82;20893;-76
2021/10/03 03:25:56;;;;;;;11.18;8.15;;;;;;;11.17;69.91;100596.91;1710621;83;20953;-76
2021/10/03 03:28:22;;;;;;;10.23;8.37;;;;;;;11.18;69.92;100603.80;1709938;83;21053;-76
2021/10/03 03:30:48;;;;;;;11.87;8.27;;;;;;;11.19;69.95;100609.38;1708325;82;20981;-76
2021/10/03 03:33:15;;;;;;;14.53;8.30;;;;;;;11.19;69.92;100602.91;1696658;83;21060;-76
2021/10/03 03:35:43;;;;;;;9.63;8.63;;;;;;;11.20;69.93;100607.20;1706677;83;21028;-76
2021/10/03 03:38:10;;;;;;;15.10;9.98;;;;;;;11.21;69.94;100602.87;1684607;83;21163;-76
2021/10/03 03:40:36;;;;;;;12.95;8.38;;;;;;;11.19;69.94;100608.09;1711140;82;20941;-76
2021/10/03 03:43:02;;;;;;;11.23;7.90;;;;;;;11.20;69.92;100610.23;1717997;82;20965;-76
2021/10/03 03:45:42;;;;;;;12.18;8.45;;;;;;;11.19;69.92;100606.79;1706418;83;20965;-76
2021/10/03 03:48:10;;;;;;;8.67;7.60;;;;;;;11.18;69.93;100610.70;1721799;82;20878;-76
2021/10/03 03:50:37;;;;;;;9.13;8.15;;;;;;;11.19;69.97;100626.64;1697472;83;20918;-76
2021/10/03 03:53:03;;;;;;;12.78;8.70;;;;;;;11.18;69.96;100618.03;1720096;82;20972;-76
2021/10/03 03:55:29;;;;;;;18.37;8.73;;;;;;;11.19;69.94;100626.20;1714284;82;20974;-76
2021/10/03 03:57:55;;;;;;;11.27;8.10;;;;;;;11.16;69.93;100628.84;1703373;84;21012;-76
2021/10/03 04:00:21;;;;;;;10.08;8.18;;;;;;;11.16;69.95;100630.58;1679564;83;20913;-76
2021/10/03 04:02:48;;;;;;;9.50;8.00;;;;;;;11.15;69.93;100628.44;1744386;82;20942;-76
2021/10/03 04:05:14;;;;;;;13.00;8.67;;;;;;;11.15;69.96;100628.44;1733261;82;20906;-76
2021/10/03 04:07:40;;;;;;;15.47;7.50;;;;;;;11.15;69.96;100628.44;1724533;82;20884;-76
2021/10/03 04:10:06;;;;;;;8.63;7.83;;;;;;;11.15;69.96;100624.98;1714644;82;21570;-76
2021/10/03 04:12:32;;;;;;;18.75;8.93;;;;;;;11.15;69.97;100623.25;1729157;82;21846;-76
2021/10/03 04:14:59;;;;;;;11.22;8.95;;;;;;;11.16;69.98;100621.08;1732877;82;20934;-76
2021/10/03 04:17:25;;;;;;;12.00;9.40;;;;;;;11.19;69.97;100613.27;1727562;82;20902;-76
2021/10/03 04:19:51;;;;;;;13.13;8.60;;;;;;;11.19;69.98;100614.55;1741246;82;20858;-76
2021/10/03 04:22:19;;;;;;;9.50;8.15;;;;;;;11.19;69.98;100621.47;1745231;82;20882;-76
2021/10/03 04:24:45;;;;;;;9.87;8.40;;;;;;;11.20;69.97;100625.32;1730555;82;20901;-76
2021/10/03 04:27:11;;;;;;;11.93;9.13;;;;;;;11.20;70.00;100618.84;1722887;82;20862;-76
2021/10/03 04:29:37;;;;;;;16.87;8.77;;;;;;;11.21;69.97;100611.50;1737102;82;20994;-76
2021/10/03 04:32:04;;;;;;;9.93;8.95;;;;;;;11.22;69.95;100614.50;1730302;82;20971;-76
2021/10/03 04:34:30;;;;;;;11.10;8.28;;;;;;;11.23;69.96;100616.65;1736321;82;20949;-76
2021/10/03 04:36:57;;;;;;;14.75;8.68;;;;;;;11.21;69.96;100614.09;1731115;82;26646;-76
2021/10/03 04:39:23;;;;;;;11.63;8.53;;;;;;;11.20;69.94;100609.79;1732266;82;20942;-76
2021/10/03 04:41:49;;;;;;;9.20;8.40;;;;;;;11.11;69.97;100588.41;1733590;82;21379;-76
2021/10/03 04:44:15;;;;;;;10.53;8.07;;;;;;;11.22;69.97;100608.03;1740247;82;20914;-76
2021/10/03 04:46:41;;;;;;;18.10;9.10;;;;;;;11.21;69.94;100603.73;1735538;82;21202;-76
2021/10/03 04:49:08;;;;;;;19.42;8.45;;;;;;;11.21;69.95;100607.62;1729333;82;20867;-76
2021/10/03 04:51:34;;;;;;;14.37;8.33;;;;;;;11.20;69.97;100605.06;1732728;82;20945;-76
2021/10/03 04:53:59;;;;;;;8.90;8.03;;;;;;;11.20;69.95;100614.12;1735499;82;20866;-76
2021/10/03 04:56:28;;;;;;;8.95;7.90;;;;;;;11.20;69.96;100615.41;1730586;82;21180;-76
2021/10/03 04:58:55;;;;;;;12.50;8.17;;;;;;;11.20;69.96;100619.30;1737531;82;20953;-76
2021/10/03 05:01:21;;;;;;;10.25;8.53;;;;;;;11.21;69.94;100611.94;1732232;82;20941;-76
2021/10/03 05:03:47;;;;;;;13.10;8.10;;;;;;;11.19;69.97;100613.27;1732783;82;22042;-76
2021/10/03 05:06:13;;;;;;;9.30;7.73;;;;;;;11.20;69.98;100611.09;1723205;82;20870;-76
2021/10/03 05:08:39;;;;;;;9.30;8.33;;;;;;;11.22;69.97;100616.23;1734164;82;20945;-76
2021/10/03 05:11:05;;;;;;;10.40;7.87;;;;;;;11.22;69.96;100611.91;1718955;82;21098;-76
2021/10/03 05:13:33;;;;;;;11.87;8.23;;;;;;;11.24;69.94;100614.47;1705474;83;20858;-76
2021/10/03 05:16:01;;;;;;;8.90;7.65;;;;;;;11.22;69.94;100609.33;1708312;83;20999;-76
2021/10/03 05:18:27;;;;;;;8.67;7.77;;;;;;;11.23;69.94;100618.80;1707062;83;21068;-76
2021/10/03 05:20:54;;;;;;;13.62;8.10;;;;;;;11.23;69.93;100610.17;1705040;83;21145;-76
2021/10/03 05:23:20;;;;;;;9.23;7.17;;;;;;;11.23;69.91;100614.91;1702877;84;21422;-76
2021/10/03 05:25:47;;;;;;;9.18;8.25;;;;;;;11.22;69.93;100608.03;1706121;83;20925;-76
2021/10/03 05:28:13;;;;;;;10.70;8.15;;;;;;;11.24;69.93;100611.88;1671603;84;22212;-76
2021/10/03 05:30:40;;;;;;;10.50;8.03;;;;;;;11.25;69.92;100612.30;1671432;85;21411;-76
2021/10/03 05:33:05;;;;;;;15.40;8.68;;;;;;;11.25;69.92;100611.86;1680469;84;21076;-76
2021/10/03 05:35:32;;;;;;;8.67;7.33;;;;;;;11.26;69.91;100613.56;1671535;84;21068;-76
2021/10/03 05:37:58;;;;;;;11.63;8.13;;;;;;;11.26;69.92;100612.27;1675776;84;21358;-76
2021/10/03 05:40:24;;;;;;;14.45;7.92;;;;;;;11.28;69.95;100614.83;1682698;84;20993;-76
2021/10/03 05:42:57;;;;;;;10.40;8.23;;;;;;;11.31;69.93;100617.80;1671861;84;21533;-76
2021/10/03 05:45:23;;;;;;;;;;;;;;;11.32;69.94;100615.63;1682529;84;20988;-76
2021/10/03 05:47:49;;;;;;;8.78;7.92;;;;;;;11.35;69.96;100618.16;1708114;83;20159;-76
2021/10/03 05:50:16;;;;;;;10.17;8.20;;;;;;;11.36;69.94;100619.86;1673357;84;21484;-76
2021/10/03 05:52:42;;;;;;;10.90;7.25;;;;;;;11.39;69.99;100625.83;1673107;85;20978;-76
2021/10/03 05:55:09;;;;;;;11.45;8.05;;;;;;;11.44;70.03;100622.69;1666845;84;20933;-76
2021/10/03 05:57:35;;;;;;;12.63;8.68;;;;;;;11.57;70.07;100617.67;1677156;84;20973;-76
2021/10/03 06:00:03;;;;;;;9.03;7.62;;;;;;;11.73;70.06;100614.34;1673213;84;21823;-76
2021/10/03 06:02:33;;;;;;;9.80;7.92;;;;;;;11.86;70.01;100617.56;1697988;83;20882;-76
2021/10/03 06:04:59;;;;;;;9.23;8.27;;;;;;;11.91;69.91;100620.47;1702536;84;21019;-76
2021/10/03 06:07:25;;;;;;;17.77;7.65;;;;;;;11.95;69.88;100618.66;1700455;84;21012;-76
2021/10/03 06:09:53;;;;;;;9.38;8.13;;;;;;;12.00;69.89;100620.68;1703662;83;21352;-76
2021/10/03 06:12:19;;;;;;;9.97;8.23;;;;;;;12.11;69.95;100618.70;1700783;83;21694;-76
2021/10/03 06:14:45;;;;;;;17.40;8.13;;;;;;;12.24;69.95;100620.58;1705874;83;21070;-76
2021/10/03 06:17:11;;;;;;;8.50;7.35;;;;;;;12.36;69.92;100624.64;1705115;83;21560;-74
2021/10/03 06:19:37;;;;;;;7.77;7.07;;;;;;;12.45;69.90;100619.23;1696429;83;21018;-74
2021/10/03 06:22:04;;;;;;;9.70;7.55;;;;;;;12.51;69.84;100619.91;1707370;82;21414;-74
2021/10/03 06:24:30;;;;;;;10.65;7.25;;;;;;;12.56;69.82;100615.91;1701693;83;21326;-74
2021/10/03 06:26:56;;;;;;;11.37;7.23;;;;;;;12.66;69.86;100612.66;1700683;84;20972;-74
2021/10/03 06:29:23;;;;;;;8.75;7.08;;;;;;;12.76;69.83;100618.88;1699435;83;21320;-74
2021/10/03 06:31:50;;;;;;;8.77;6.87;;;;;;;12.91;69.83;100626.73;1700503;84;21304;-74
2021/10/03 06:34:16;;;;;;;10.70;7.28;;;;;;;13.04;69.82;100629.39;1698033;84;20957;-74
2021/10/03 06:36:42;;;;;;;9.83;7.77;;;;;;;13.16;69.74;100629.55;1694829;83;21026;-74
2021/10/03 06:39:08;;;;;;;7.55;6.78;;;;;;;13.25;69.72;100631.45;1700817;83;20949;-73
2021/10/03 06:41:34;;;;;;;13.30;7.30;;;;;;;13.37;69.71;100632.02;1692665;83;21362;-73
2021/10/03 06:44:04;;;;;;;11.45;7.67;;;;;;;13.44;69.60;100634.41;1686693;82;21401;-73
2021/10/03 06:46:30;;;;;;;11.45;7.78;;;;;;;13.54;69.65;100638.43;1690036;83;28513;-73
2021/10/03 06:48:56;;;;;;;9.93;6.67;;;;;;;13.68;69.68;100638.50;1687615;83;21353;-73
2021/10/03 06:51:26;;;;;;;7.42;6.62;;;;;;;13.89;69.72;100638.73;1722285;82;21563;-73
2021/10/03 06:53:52;;;;;;;11.90;6.55;;;;;;;14.11;69.58;100650.63;1726422;82;21025;-73
2021/10/03 06:56:18;;;;;;;11.87;7.20;;;;;;;14.27;69.50;100651.47;1730183;82;20961;-73
2021/10/03 06:58:44;;;;;;;7.87;7.03;;;;;;;14.29;69.32;100647.06;1729854;82;21088;-73
2021/10/03 07:01:10;;;;;;;15.20;7.95;;;;;;;14.37;69.39;100649.84;1732514;81;21409;-73
2021/10/03 07:03:36;;;;;;;7.83;6.60;;;;;;;14.56;69.39;100648.81;1735150;82;20948;-73
2021/10/03 07:06:02;;;;;;;9.50;6.67;;;;;;;14.75;69.31;100647.77;1729278;82;20953;-73
2021/10/03 07:08:28;;;;;;;10.45;6.95;;;;;;;14.97;69.23;100638.36;1725049;82;21105;-73
2021/10/03 07:10:54;;;;;;;6.67;6.07;;;;;;;15.26;69.13;100642.55;1731375;82;21508;-73
2021/10/03 07:13:20;;;;;;;6.87;6.13;;;;;;;15.45;69.00;100641.45;1729300;82;21093;-73
2021/10/03 07:15:47;;;;;;;7.03;6.30;;;;;;;15.60;68.99;100643.99;1730732;82;21330;-73
2021/10/03 07:18:13;;;;;;;8.97;6.00;;;;;;;15.68;68.89;100636.27;1704566;82;20957;-73
2021/10/03 07:20:40;;;;;;;6.47;5.87;;;;;;;15.79;68.89;100632.81;1730778;82;20954;-73
2021/10/03 07:23:08;;;;;;;9.03;6.15;;;;;;;15.88;68.81;100635.53;1700051;82;21501;-73
2021/10/03 07:25:34;;;;;;;9.07;5.57;;;;;;;16.01;68.79;100634.16;1678525;84;20933;-76
2021/10/03 07:28:00;;;;;;;10.17;6.00;;;;;;;16.17;68.71;100627.88;1673558;84;21646;-72
2021/10/03 07:30:30;;;;;;;9.18;6.08;;;;;;;16.28;68.62;100623.09;1678519;84;21347;-75
2021/10/03 07:32:56;;;;;;;10.60;6.13;;;;;;;16.37;68.67;100622.73;1677008;84;21071;-75
2021/10/03 07:35:22;;;;;;;7.17;5.97;;;;;;;16.45;68.54;100621.97;1692172;83;21012;-72
2021/10/03 07:37:57;;;;;;;11.03;5.85;;;;;;;16.54;68.36;100618.14;1698016;83;21030;-72
2021/10/03 07:40:23;;;;;;;13.55;5.80;;;;;;;16.67;68.40;100616.73;1722691;82;21281;-75
2021/10/03 07:42:49;;;;;;;15.80;5.90;;;;;;;16.80;68.33;100615.77;1694078;84;20934;-75
2021/10/03 07:45:16;;;;;;;7.92;5.47;;;;;;;16.89;68.22;100625.84;1730862;82;20954;-73
2021/10/03 07:47:42;;;;;;;9.90;5.63;;;;;;;16.95;68.15;100619.05;1697144;83;20906;-75
2021/10/03 07:50:09;;;;;;;6.70;5.77;;;;;;;17.06;68.01;100617.29;1728101;82;20945;-74
2021/10/03 07:52:36;;;;;;;9.63;5.60;;;;;;;17.19;67.92;100615.36;1716868;82;20911;-74
2021/10/03 07:55:02;;;;;;;12.03;5.70;;;;;;;17.31;67.95;100613.13;1709990;82;20938;-75
2021/10/03 07:57:28;;;;;;;6.53;5.20;;;;;;;17.42;67.91;100618.73;1727079;82;20937;-75
2021/10/03 07:59:58;;;;;;;9.58;6.03;;;;;;;17.48;67.82;100615.40;1705071;83;21016;-76
2021/10/03 08:02:24;;;;;;;11.47;5.93;;;;;;;17.57;67.83;100612.84;1726473;82;21093;-74
2021/10/03 08:04:50;;;;;;;5.73;5.20;;;;;;;17.77;67.76;100621.94;1732538;82;20866;-75
2021/10/03 08:07:15;;;;;;;6.60;5.57;;;;;;;17.96;67.50;100612.79;1725743;82;20977;-75
2021/10/03 08:09:42;;;;;;;6.20;5.60;;;;;;;18.14;67.50;100614.55;1725374;81;21611;-73
2021/10/03 08:12:10;;;;;;;9.03;6.05;;;;;;;18.30;67.36;100615.95;1728438;82;20969;-73
2021/10/03 08:14:36;;;;;;;9.47;5.67;;;;;;;18.33;67.15;100614.50;1702518;83;21082;-75
2021/10/03 08:17:03;;;;;;;8.23;5.90;;;;;;;18.31;66.63;100620.72;1710494;82;21062;-76
2021/10/03 08:19:29;;;;;;;7.62;6.40;;;;;;;18.25;66.69;100614.47;1725515;81;21024;-76
2021/10/03 08:21:56;;;;;;;11.33;5.83;;;;;;;18.14;66.48;100622.86;1691758;83;21000;-76
2021/10/03 08:24:22;;;;;;;7.78;5.97;;;;;;;18.10;66.35;100621.31;1682789;83;20993;-76
2021/10/03 08:26:48;;;;;;;8.60;6.05;;;;;;;18.10;66.32;100620.00;1668727;83;612466;-73
2021/10/03 08:29:15;;;;;;;6.35;5.80;;;;;;;18.10;65.99;100619.54;1663852;85;21013;-73
2021/10/03 08:31:41;;;;;;;12.77;6.83;;;;;;;18.07;65.88;100612.29;1673677;84;21086;-73
2021/10/03 08:34:07;;;;;;;8.40;5.90;;;;;;;18.07;65.67;100613.60;1674798;85;21068;-73
2021/10/03 08:36:33;;;;;;;11.50;5.97;;;;;;;18.04;65.49;100611.13;1716370;82;20957;-73
2021/10/03 08:38:59;;;;;;;14.40;6.87;;;;;;;17.97;65.24;100609.72;1719641;82;21084;-73
2021/10/03 08:41:26;;;;;;;12.98;6.45;;;;;;;17.89;65.05;100608.76;1711781;82;21525;-73
2021/10/03 08:43:54;;;;;;;8.40;6.33;;;;;;;17.84;65.03;100603.73;1715967;82;20913;-73
2021/10/03 08:46:27;;;;;;;9.38;5.97;;;;;;;17.78;64.75;100604.02;1719162;81;21016;-73
2021/10/03 08:48:55;;;;;;;9.13;6.65;;;;;;;17.72;64.55;100596.45;1722992;81;20991;-73
2021/10/03 08:51:22;;;;;;;7.72;5.67;;;;;;;17.70;64.36;100597.44;1728130;81;20907;-73
2021/10/03 08:53:48;;;;;;;10.65;6.00;;;;;;;17.67;64.33;100590.62;1727280;81;20930;-73
2021/10/03 08:56:16;;;;;;;10.00;5.85;;;;;;;17.67;64.14;100589.31;1727689;81;20858;-73
2021/10/03 08:58:42;;;;;;;10.75;6.00;;;;;;;17.66;64.01;100595.91;1716709;81;20895;-73
2021/10/03 09:01:11;;;;;;;8.40;6.33;;;;;;;17.64;63.90;100592.48;1709680;81;20882;-73
2021/10/03 09:03:37;;;;;;;11.55;6.17;;;;;;;17.64;63.77;100588.11;1717232;81;20954;-73
2021/10/03 09:06:06;;;;;;;7.75;6.08;;;;;;;17.68;63.67;100588.36;1709726;83;21536;-73
2021/10/03 09:08:49;;;;;;;13.40;6.07;;;;;;;17.69;63.50;100583.98;1710769;83;21028;-73
2021/10/03 09:11:18;;;;;;;16.20;7.42;;;;;;;17.72;63.42;100592.53;1715988;82;21513;-73
2021/10/03 09:13:50;;;;;;;13.08;7.12;;;;;;;17.79;63.16;100596.56;1714743;82;21060;-73
2021/10/03 09:16:34;;;;;;;14.18;5.83;;;;;;;17.82;63.12;100595.11;1719188;82;20973;-73
2021/10/03 09:19:11;;;;;;;6.65;5.95;;;;;;;17.88;63.02;100587.91;1719728;82;20959;-72
2021/10/03 09:21:41;;;;;;;12.87;6.27;;;;;;;17.88;62.90;100591.83;1693079;83;20942;-73
2021/10/03 09:24:15;;;;;;;8.93;5.62;;;;;;;17.84;62.67;100588.05;1674418;83;20990;-73
2021/10/03 09:27:00;;;;;;;9.48;6.47;;;;;;;17.80;62.62;100580.41;1670347;83;21055;-73
2021/10/03 09:29:33;;;;;;;11.37;7.67;;;;;;;17.80;62.52;100579.95;1723793;82;20953;-73
2021/10/03 09:32:14;;;;;;;12.13;7.35;;;;;;;17.75;62.32;100581.93;1720446;82;21520;-73
2021/10/03 09:34:49;;;;;;;17.82;7.00;;;;;;;17.69;62.18;100586.13;1718687;81;20937;-73
2021/10/03 09:37:28;;;;;;;9.85;6.87;;;;;;;17.64;61.96;100578.11;1723267;82;20915;-73
2021/10/03 09:40:09;;;;;;;11.00;7.00;;;;;;;17.59;62.02;100569.16;1713819;82;21762;-72
2021/10/03 09:42:36;;;;;;;8.10;6.85;;;;;;;17.57;61.92;100568.38;1724075;82;20886;-73
2021/10/03 09:45:08;;;;;;;;;;;;;;;17.62;61.87;100569.02;1727670;82;20953;-72
2021/10/03 09:47:37;;;;;;;11.88;7.65;;;;;;;17.68;61.50;100559.59;1723105;82;20138;-73
2021/10/03 09:50:06;;;;;;;14.47;7.58;;;;;;;17.74;61.42;100561.92;1713525;81;20882;-73
2021/10/03 09:52:34;;;;;;;15.23;7.35;;;;;;;17.80;61.48;100555.10;1715391;81;21426;-73
2021/10/03 09:55:04;;;;;;;8.93;7.05;;;;;;;17.88;61.40;100556.51;1717813;82;20917;-73
2021/10/03 09:57:30;;;;;;;15.10;6.90;;;;;;;17.96;61.35;100559.16;1710409;83;21517;-73
2021/10/03 09:59:57;;;;;;;12.33;7.60;;;;;;;18.11;61.36;100557.58;1715109;82;21556;-73
2021/10/03 10:02:24;;;;;;;7.62;6.80;;;;;;;18.27;61.31;100558.50;1719533;82;21552;-73
2021/10/03 10:04:53;;;;;;;8.90;7.42;;;;;;;18.44;61.24;100557.69;1717136;82;21413;-73
2021/10/03 10:07:20;;;;;;;11.22;7.05;;;;;;;18.56;60.81;100552.30;1717978;82;21152;-73
2021/10/03 10:09:47;;;;;;;10.00;7.03;;;;;;;18.64;60.87;100551.03;1683237;84;21589;-73
2021/10/03 10:12:21;;;;;;;7.55;6.75;;;;;;;18.73;60.73;100554.47;1668895;83;21555;-73
2021/10/03 10:15:00;;;;;;;8.75;6.65;;;;;;;18.85;60.61;100551.69;1680546;83;21545;-73
2021/10/03 10:17:35;;;;;;;9.40;6.80;;;;;;;18.93;60.41;100548.20;1688062;83;21067;-73
2021/10/03 10:20:24;;;;;;;11.60;6.65;;;;;;;19.02;60.41;100551.67;1665842;84;21073;-73
2021/10/03 10:23:01;;;;;;;9.30;6.60;;;;;;;19.08;60.25;100548.73;1678511;83;21642;-76
2021/10/03 10:25:52;;;;;;;10.93;6.90;;;;;;;19.08;60.03;100542.17;1686364;83;21839;-76
2021/10/03 10:28:31;;;;;;;8.95;7.67;;;;;;;19.07;59.91;100541.80;1678253;85;21413;-76
2021/10/03 10:31:15;;;;;;;9.43;6.83;;;;;;;19.11;60.04;100542.48;1672189;85;45719;-76
2021/10/03 10:34:00;;;;;;;10.05;6.60;;;;;;;19.16;59.63;100543.09;1674620;85;21449;-76
2021/10/03 10:36:30;;;;;;;9.40;6.58;;;;;;;19.21;59.72;100537.14;1681214;85;20930;-76
2021/10/03 10:39:12;;;;;;;15.50;7.53;;;;;;;19.30;59.65;100546.27;1683761;83;21418;-76
2021/10/03 10:41:45;;;;;;;10.95;6.28;;;;;;;19.36;59.24;100538.07;1679493;83;20911;-76
2021/10/03 10:44:37;;;;;;;6.95;6.25;;;;;;;19.39;59.38;100540.06;1683175;83;21451;-76
2021/10/03 10:47:11;;;;;;;15.85;7.50;;;;;;;19.41;59.13;100538.20;1678306;83;21492;-76
2021/10/03 10:49:45;;;;;;;7.92;6.40;;;;;;;19.46;59.13;100537.96;1681153;85;21431;-76
2021/10/03 10:52:25;;;;;;;18.27;7.80;;;;;;;19.54;58.82;100531.02;1691306;83;20935;-76
2021/10/03 10:55:12;;;;;;;13.40;6.90;;;;;;;19.64;59.04;100533.53;1686277;83;21454;-76
2021/10/03 10:58:02;;;;;;;8.80;6.17;;;;;;;19.73;58.85;100533.02;1682030;83;20967;-76
2021/10/03 11:00:32;;;;;;;8.78;6.55;;;;;;;19.77;58.75;100528.80;1680827;85;21432;-76
2021/10/03 11:03:01;;;;;;;7.20;6.35;;;;;;;19.83;58.45;100529.78;1677719;84;21076;-76
2021/10/03 11:05:43;;;;;;;14.60;8.30;;;;;;;19.84;58.42;100526.69;1683763;85;20952;-77
2021/10/03 11:08:20;;;;;;;10.00;5.97;;;;;;;19.84;58.17;100526.69;1680597;84;21458;-77
2021/10/03 11:11:09;;;;;;;11.25;6.55;;;;;;;19.85;58.05;100527.06;1681335;85;21434;-77
2021/10/03 11:13:48;;;;;;;13.90;6.72;;;;;;;19.88;58.11;100522.96;1679027;83;21596;-77
2021/10/03 11:16:32;;;;;;;8.03;6.00;;;;;;;19.91;58.00;100526.72;1682912;83;21612;-77
2021/10/03 11:19:04;;;;;;;8.73;6.12;;;;;;;19.93;57.95;100527.48;1693680;83;21595;-77
2021/10/03 11:21:34;;;;;;;10.65;6.58;;;;;;;19.96;57.40;100521.22;1680523;83;22419;-78
2021/10/03 11:24:04;;;;;;;10.20;6.40;;;;;;;20.01;57.56;100529.68;1687699;83;20940;-73
2021/10/03 11:26:55;;;;;;;11.05;6.50;;;;;;;20.06;57.46;100523.24;1686502;83;21368;-73